createdAt,value
2022-08-10T00:01:55.956Z,7.15
2022-08-10T00:04:25.982Z,7.72
2022-08-10T00:06:56.037Z,7.97
2022-08-10T00:09:25.189Z,7.95
2022-08-10T00:11:54.187Z,6.32
2022-08-10T00:14:24.922Z,6.15
2022-08-10T00:16:53.861Z,7.38
2022-08-10T00:19:22.905Z,10.00
2022-08-10T00:21:52.049Z,6.43
2022-08-10T00:24:21.063Z,7.80
2022-08-10T00:27:50.401Z,5.60
2022-08-10T00:29:40.805Z,8.25
2022-08-10T00:32:10.045Z,7.65
2022-08-10T00:34:39.004Z,8.93
2022-08-10T00:37:08.041Z,6.80
2022-08-10T00:39:39.582Z,5.03
2022-08-10T00:42:10.003Z,7.07
2022-08-10T00:44:42.560Z,7.13
2022-08-10T00:47:35.886Z,5.78
2022-08-10T00:50:02.588Z,6.40
2022-08-10T00:52:33.179Z,6.07
2022-08-10T00:55:06.567Z,5.35
2022-08-10T00:57:36.345Z,7.20
2022-08-10T01:00:08.919Z,4.32
2022-08-10T01:02:38.099Z,7.22
2022-08-10T01:05:13.412Z,6.40
2022-08-10T01:10:35.474Z,10.20
2022-08-10T01:13:09.822Z,4.13
2022-08-10T01:15:54.158Z,5.20
2022-08-10T01:18:37.523Z,5.18
2022-08-10T01:21:37.986Z,6.47
2022-08-10T01:24:41.626Z,12.07
2022-08-10T01:27:27.112Z,6.32
2022-08-10T01:30:09.027Z,6.25
2022-08-10T01:32:55.508Z,8.70
2022-08-10T01:35:32.418Z,5.47
2022-08-10T01:38:07.788Z,6.97
2022-08-10T01:40:40.801Z,4.25
2022-08-10T01:43:11.848Z,5.68
2022-08-10T01:45:46.473Z,4.78
2022-08-10T01:48:29.474Z,5.32
2022-08-10T01:51:14.643Z,7.55
2022-08-10T01:53:52.741Z,6.82
2022-08-10T01:56:23.649Z,8.65
2022-08-10T01:58:58.475Z,6.60
2022-08-10T02:01:31.764Z,5.43
2022-08-10T02:04:06.594Z,5.30
2022-08-10T02:06:39.672Z,5.57
2022-08-10T02:09:10.116Z,5.55
2022-08-10T02:12:06.790Z,7.60
2022-08-10T02:14:35.560Z,5.78
2022-08-10T02:17:57.749Z,4.15
2022-08-10T02:20:04.959Z,4.90
2022-08-10T02:22:45.855Z,6.13
2022-08-10T02:25:41.156Z,3.63
2022-08-10T02:28:07.887Z,4.70
2022-08-10T02:30:37.864Z,5.53
2022-08-10T02:33:10.141Z,5.55
2022-08-10T02:35:54.149Z,3.80
2022-08-10T02:38:58.654Z,6.55
2022-08-10T02:45:14.337Z,5.32
2022-08-10T02:45:20.593Z,6.07
2022-08-10T02:47:27.600Z,5.15
2022-08-10T02:50:06.019Z,4.95
2022-08-10T02:52:42.624Z,4.57
2022-08-10T02:55:21.173Z,4.05
2022-08-10T02:58:12.745Z,5.22
2022-08-10T03:00:50.979Z,3.88
2022-08-10T03:03:24.484Z,6.03
2022-08-10T03:05:58.003Z,3.53
2022-08-10T03:08:32.168Z,5.40
2022-08-10T03:11:04.194Z,5.47
2022-08-10T03:13:35.684Z,3.65
2022-08-10T03:16:06.233Z,4.32
2022-08-10T03:18:35.500Z,7.30
2022-08-10T03:21:11.415Z,9.95
2022-08-10T03:23:42.908Z,5.13
2022-08-10T03:26:16.510Z,4.82
2022-08-10T03:28:48.863Z,4.55
2022-08-10T03:31:18.623Z,3.65
2022-08-10T03:33:48.221Z,5.18
2022-08-10T03:36:40.617Z,6.95
2022-08-10T03:39:08.399Z,5.85
2022-08-10T03:41:42.261Z,5.60
2022-08-10T03:44:26.184Z,8.85
2022-08-10T03:46:56.870Z,4.88
2022-08-10T03:49:28.019Z,4.78
2022-08-10T03:51:59.854Z,8.20
2022-08-10T03:54:29.338Z,6.90
2022-08-10T03:56:58.625Z,5.60
2022-08-10T03:59:27.847Z,6.32
2022-08-10T04:02:44.712Z,5.00
2022-08-10T04:04:46.561Z,4.95
2022-08-10T04:07:17.442Z,5.38
2022-08-10T04:09:55.213Z,5.60
2022-08-10T04:12:25.392Z,5.60
2022-08-10T04:14:54.365Z,5.78
2022-08-10T04:18:01.125Z,9.50
2022-08-10T04:20:20.186Z,5.45
2022-08-10T04:22:53.836Z,5.95
2022-08-10T04:25:25.247Z,5.95
2022-08-10T04:27:56.062Z,6.40
2022-08-10T04:30:27.911Z,8.13
2022-08-10T04:33:00.476Z,6.30
2022-08-10T04:35:30.635Z,6.85
2022-08-10T04:38:03.371Z,6.78
2022-08-10T04:40:32.807Z,6.47
2022-08-10T04:43:08.953Z,7.45
2022-08-10T04:45:48.293Z,6.68
2022-08-10T04:48:42.812Z,6.90
2022-08-10T04:51:16.882Z,6.32
2022-08-10T04:54:04.481Z,6.90
2022-08-10T04:56:38.512Z,10.25
2022-08-10T04:59:08.996Z,15.23
2022-08-10T05:02:28.022Z,6.50
2022-08-10T05:04:33.849Z,9.10
2022-08-10T05:07:07.620Z,7.43
2022-08-10T05:10:01.359Z,7.65
2022-08-10T05:12:28.625Z,16.30
2022-08-10T05:14:57.667Z,7.22
2022-08-10T05:17:26.607Z,7.50
2022-08-10T05:20:04.854Z,11.25
2022-08-10T05:22:37.117Z,7.35
2022-08-10T05:25:09.689Z,8.45
2022-08-10T05:27:39.290Z,8.57
2022-08-10T05:30:10.055Z,8.35
2022-08-10T05:32:57.571Z,10.60
2022-08-10T05:35:55.340Z,9.90
2022-08-10T05:38:18.911Z,7.50
2022-08-10T05:40:50.631Z,10.10
2022-08-10T05:43:21.195Z,7.68
2022-08-10T05:46:19.688Z,7.15
2022-08-10T05:48:59.606Z,7.47
2022-08-10T05:51:31.107Z,7.53
2022-08-10T05:54:06.085Z,5.57
2022-08-10T05:56:54.279Z,5.70
2022-08-10T06:00:11.054Z,8.60
2022-08-10T06:02:33.564Z,9.68
2022-08-10T06:07:38.863Z,5.80
2022-08-10T06:10:10.373Z,8.93
2022-08-10T06:12:55.072Z,8.38
2022-08-10T06:18:17.765Z,7.70
2022-08-10T06:20:47.908Z,10.20
2022-08-10T06:23:18.007Z,7.00
2022-08-10T06:26:11.461Z,7.35
2022-08-10T06:28:40.885Z,8.50
2022-08-10T06:31:11.737Z,7.93
2022-08-10T06:33:41.864Z,8.27
2022-08-10T06:36:12.637Z,10.80
2022-08-10T06:38:43.516Z,8.73
2022-08-10T06:41:20.293Z,7.93
2022-08-10T06:43:58.719Z,5.03
2022-08-10T06:46:30.025Z,7.55
2022-08-10T06:49:02.680Z,8.43
2022-08-10T06:51:34.574Z,8.10
2022-08-10T06:54:10.241Z,7.90
2022-08-10T06:59:28.033Z,7.65
2022-08-10T07:02:06.570Z,8.40
2022-08-10T07:04:41.952Z,8.13
2022-08-10T07:07:15.540Z,5.97
2022-08-10T07:09:46.352Z,8.15
2022-08-10T07:12:18.422Z,9.77
2022-08-10T07:14:51.541Z,11.10
2022-08-10T07:17:23.002Z,9.13
2022-08-10T07:19:56.360Z,10.93
2022-08-10T07:23:01.140Z,7.20
2022-08-10T07:25:20.559Z,8.18
2022-08-10T07:28:00.606Z,7.72
2022-08-10T07:30:34.241Z,7.78
2022-08-10T07:33:05.671Z,6.50
2022-08-10T07:35:42.394Z,5.47
2022-08-10T07:38:17.725Z,8.13
2022-08-10T07:40:48.598Z,8.60
2022-08-10T07:43:18.962Z,7.13
2022-08-10T07:45:50.906Z,4.45
2022-08-10T07:48:25.969Z,9.70
2022-08-10T07:50:59.871Z,9.07
2022-08-10T07:53:33.447Z,7.35
2022-08-10T07:56:20.930Z,6.38
2022-08-10T07:58:58.928Z,7.93
2022-08-10T08:01:33.715Z,8.60
2022-08-10T08:04:05.885Z,7.67
2022-08-10T08:06:43.611Z,8.25
2022-08-10T08:09:12.978Z,8.95
2022-08-10T08:11:44.517Z,7.13
2022-08-10T08:14:14.518Z,8.20
2022-08-10T08:16:48.925Z,8.77
2022-08-10T08:19:27.966Z,8.10
2022-08-10T08:24:04.781Z,10.25
2022-08-10T08:24:52.130Z,7.47
2022-08-10T08:27:22.228Z,8.50
2022-08-10T08:29:52.937Z,8.60
2022-08-10T08:32:25.317Z,9.50
2022-08-10T08:34:57.747Z,8.52
2022-08-10T08:38:32.297Z,7.00
2022-08-10T08:40:25.341Z,7.72
2022-08-10T08:43:18.093Z,6.68
2022-08-10T08:46:18.490Z,7.25
2022-08-10T08:50:08.982Z,10.43
2022-08-10T08:55:00.925Z,9.98
2022-08-10T08:57:49.425Z,8.43
2022-08-10T09:00:30.634Z,8.52
2022-08-10T09:03:33.599Z,7.40
2022-08-10T09:06:13.544Z,8.55
2022-08-10T09:09:21.216Z,6.93
2022-08-10T09:12:03.904Z,7.03
2022-08-10T09:14:42.137Z,8.50
2022-08-10T09:17:18.840Z,7.43
2022-08-10T09:19:56.074Z,7.00
2022-08-10T09:22:35.083Z,7.50
2022-08-10T09:25:15.017Z,8.68
2022-08-10T09:27:49.326Z,8.77
2022-08-10T09:30:31.246Z,8.40
2022-08-10T09:36:20.172Z,6.80
2022-08-10T09:36:23.866Z,8.15
2022-08-10T09:40:05.962Z,8.70
2022-08-10T09:42:14.969Z,6.75
2022-08-10T09:44:57.393Z,7.53
2022-08-10T09:48:01.179Z,8.43
2022-08-10T09:51:20.973Z,8.82
2022-08-10T09:53:43.452Z,6.72
2022-08-10T09:56:28.726Z,7.00
2022-08-10T09:59:27.295Z,9.13
2022-08-10T10:02:11.107Z,9.32
2022-08-10T10:04:49.593Z,8.57
2022-08-10T10:07:29.378Z,9.05
2022-08-10T10:10:04.685Z,9.43
2022-08-10T10:12:49.520Z,10.73
2022-08-10T10:15:32.152Z,7.18
2022-08-10T10:18:40.933Z,9.07
2022-08-10T10:21:24.217Z,6.40
2022-08-10T10:24:20.180Z,7.57
2022-08-10T10:26:56.488Z,10.82
2022-08-10T10:29:57.483Z,7.95
2022-08-10T10:32:40.434Z,9.30
2022-08-10T10:35:22.721Z,8.93
2022-08-10T10:38:01.557Z,7.97
2022-08-10T10:40:50.691Z,6.85
2022-08-10T10:43:35.721Z,7.38
2022-08-10T10:46:16.942Z,7.18
2022-08-10T10:49:01.686Z,8.23
2022-08-10T10:51:39.747Z,7.75
2022-08-10T10:54:13.247Z,8.55
2022-08-10T10:56:54.330Z,7.82
2022-08-10T10:59:56.402Z,7.63
2022-08-10T11:02:44.954Z,7.45
2022-08-10T11:05:24.228Z,8.10
2022-08-10T11:08:00.202Z,10.00
2022-08-10T11:10:37.455Z,5.03
2022-08-10T11:14:25.578Z,7.85
2022-08-10T11:16:25.935Z,5.32
2022-08-10T11:19:04.552Z,7.45
2022-08-10T11:21:42.240Z,9.02
2022-08-10T11:24:47.820Z,8.10
2022-08-10T11:27:21.907Z,6.35
2022-08-10T11:30:01.679Z,9.35
2022-08-10T11:32:38.294Z,7.57
2022-08-10T11:35:19.692Z,4.93
2022-08-10T11:38:34.480Z,6.32
2022-08-10T11:41:05.555Z,6.95
2022-08-10T11:43:58.540Z,10.95
2022-08-10T11:46:34.759Z,7.22
2022-08-10T11:49:10.950Z,9.40
2022-08-10T11:51:47.306Z,7.00
2022-08-10T11:54:27.310Z,5.45
2022-08-10T11:57:02.448Z,9.38
2022-08-10T11:59:58.155Z,8.13
2022-08-10T12:02:33.844Z,9.07
2022-08-10T12:05:07.855Z,7.97
2022-08-10T12:09:23.996Z,7.88
2022-08-10T12:10:36.383Z,7.32
2022-08-10T12:13:12.676Z,8.68
2022-08-10T12:15:47.583Z,9.23
2022-08-10T12:18:22.881Z,6.63
2022-08-10T12:20:58.676Z,7.13
2022-08-10T12:23:39.086Z,7.25
2022-08-10T12:26:14.414Z,6.47
2022-08-10T12:28:52.012Z,6.80
2022-08-10T12:31:27.831Z,7.88
2022-08-10T12:34:13.406Z,7.60
2022-08-10T12:36:46.190Z,7.25
2022-08-10T12:39:22.465Z,8.02
2022-08-10T12:42:00.085Z,7.82
2022-08-10T12:44:42.289Z,9.52
2022-08-10T12:47:23.272Z,5.97
2022-08-10T12:50:23.851Z,8.52
2022-08-10T12:53:06.540Z,6.57
2022-08-10T12:55:41.204Z,7.15
2022-08-10T12:58:57.187Z,7.50
2022-08-10T13:01:16.236Z,9.48
2022-08-10T13:04:24.185Z,6.80
2022-08-10T13:06:42.584Z,8.73
2022-08-10T13:09:13.735Z,7.93
2022-08-10T13:12:34.264Z,9.40
2022-08-10T13:14:43.698Z,7.15
2022-08-10T13:17:21.045Z,7.38
2022-08-10T13:19:56.530Z,7.63
2022-08-10T13:22:31.835Z,7.05
2022-08-10T13:25:04.011Z,10.45
2022-08-10T13:28:00.806Z,12.15
2022-08-10T13:30:35.454Z,9.40
2022-08-10T13:33:08.539Z,7.25
2022-08-10T13:35:38.866Z,8.02
2022-08-10T13:38:09.695Z,9.35
2022-08-10T13:40:40.672Z,11.30
2022-08-10T13:43:12.510Z,10.10
2022-08-10T13:45:47.873Z,9.40
2022-08-10T13:48:21.567Z,8.27
2022-08-10T13:50:53.399Z,7.90
2022-08-10T13:53:23.541Z,9.50
2022-08-10T13:55:56.725Z,9.10
2022-08-10T13:58:32.139Z,10.45
2022-08-10T14:01:02.698Z,6.17
2022-08-10T14:03:38.431Z,7.95
2022-08-10T14:06:10.778Z,8.27
2022-08-10T14:08:42.144Z,10.73
2022-08-10T14:11:15.779Z,8.35
2022-08-10T14:13:52.757Z,8.95
2022-08-10T14:16:23.180Z,11.13
2022-08-10T14:18:54.614Z,9.93
2022-08-10T14:21:23.972Z,11.85
2022-08-10T14:23:53.879Z,10.68
2022-08-10T14:26:26.846Z,10.43
2022-08-10T14:29:03.260Z,10.00
2022-08-10T14:31:34.368Z,8.32
2022-08-10T14:34:05.960Z,13.07
2022-08-10T14:36:43.391Z,10.48
2022-08-10T14:39:21.403Z,11.93
2022-08-10T14:42:04.639Z,16.15
2022-08-10T14:44:48.649Z,9.35
2022-08-10T14:47:52.275Z,12.57
2022-08-10T14:50:09.943Z,11.02
2022-08-10T14:52:44.062Z,13.45
2022-08-10T14:55:19.344Z,12.27
2022-08-10T14:58:16.139Z,14.23
2022-08-10T15:00:43.990Z,11.07
2022-08-10T15:03:58.689Z,14.38
2022-08-10T15:06:18.069Z,11.85
2022-08-10T15:08:48.928Z,13.05
2022-08-10T15:12:14.805Z,14.75
2022-08-10T15:14:41.103Z,10.70
2022-08-10T15:17:01.111Z,13.02
2022-08-10T15:20:04.682Z,14.13
2022-08-10T15:22:37.017Z,11.45
2022-08-10T15:25:17.953Z,11.38
2022-08-10T15:27:54.446Z,13.00
2022-08-10T15:30:33.267Z,12.98
2022-08-10T15:33:59.440Z,10.77
2022-08-10T15:36:37.134Z,18.73
2022-08-10T15:39:14.967Z,14.57
2022-08-10T15:42:00.824Z,13.90
2022-08-10T15:44:39.926Z,14.57
2022-08-10T15:47:15.131Z,13.45
2022-08-10T15:49:53.847Z,14.05
2022-08-10T15:53:00.024Z,8.70
2022-08-10T15:55:41.757Z,9.18
2022-08-10T15:58:14.149Z,11.15
2022-08-10T16:00:57.224Z,17.33
2022-08-10T16:03:36.843Z,10.10
2022-08-10T16:06:12.302Z,13.50
2022-08-10T16:08:56.284Z,8.60
2022-08-10T16:11:38.106Z,8.68
2022-08-10T16:14:17.369Z,8.05
2022-08-10T16:16:51.554Z,11.52
2022-08-10T16:19:25.115Z,9.15
2022-08-10T16:22:34.197Z,16.45
2022-08-10T16:24:53.585Z,10.95
2022-08-10T16:27:27.086Z,10.75
2022-08-10T16:30:01.183Z,9.98
2022-08-10T16:32:32.906Z,7.82
2022-08-10T16:35:08.853Z,7.82
2022-08-10T16:37:57.826Z,11.00
2022-08-10T16:40:30.309Z,12.38
2022-08-10T16:43:03.171Z,9.77
2022-08-10T16:45:35.835Z,10.80
2022-08-10T16:48:06.676Z,9.32
2022-08-10T16:50:42.349Z,8.63
2022-08-10T16:53:16.727Z,9.20
2022-08-10T16:55:50.771Z,9.87
2022-08-10T16:58:28.097Z,8.80
2022-08-10T17:01:02.545Z,8.60
2022-08-10T17:04:08.303Z,11.52
2022-08-10T17:06:28.998Z,9.48
2022-08-10T17:09:02.369Z,7.15
2022-08-10T17:11:34.473Z,9.77
2022-08-10T17:14:07.864Z,8.32
2022-08-10T17:16:39.820Z,9.35
2022-08-10T17:19:14.813Z,8.13
2022-08-10T17:21:51.510Z,8.48
2022-08-10T17:24:27.685Z,8.13
2022-08-10T17:28:03.970Z,7.07
2022-08-10T17:32:44.232Z,7.15
2022-08-10T17:35:23.038Z,9.88
2022-08-10T17:37:58.566Z,8.18
2022-08-10T17:40:31.795Z,8.43
2022-08-10T17:43:02.615Z,8.38
2022-08-10T17:45:47.889Z,6.38
2022-08-10T17:48:20.026Z,7.10
2022-08-10T17:50:52.309Z,4.88
2022-08-10T17:53:26.500Z,5.85
2022-08-10T17:55:58.762Z,6.70
2022-08-10T17:58:29.928Z,8.43
2022-08-10T18:01:41.408Z,6.60
2022-08-10T18:03:54.080Z,7.65
2022-08-10T18:06:24.101Z,7.00
2022-08-10T18:08:58.839Z,7.55
2022-08-10T18:14:03.711Z,4.40
2022-08-10T18:16:34.343Z,6.85
2022-08-10T18:19:09.087Z,11.32
2022-08-10T18:21:46.287Z,8.50
2022-08-10T18:24:19.099Z,6.70
2022-08-10T18:26:54.857Z,6.68
2022-08-10T18:29:28.413Z,7.63
2022-08-10T18:31:59.872Z,7.22
2022-08-10T18:34:33.276Z,7.72
2022-08-10T18:37:03.961Z,7.25
2022-08-10T18:39:40.793Z,6.70
2022-08-10T18:42:15.959Z,9.07
2022-08-10T18:44:48.976Z,8.00
2022-08-10T18:47:22.190Z,6.85
2022-08-10T18:50:06.366Z,6.50
2022-08-10T18:52:38.190Z,5.53
2022-08-10T18:55:27.076Z,6.55
2022-08-10T18:58:31.850Z,7.45
2022-08-10T19:01:19.356Z,5.70
2022-08-10T19:04:14.650Z,8.35
2022-08-10T19:07:18.543Z,6.22
2022-08-10T19:10:11.065Z,8.82
2022-08-10T19:12:53.690Z,5.57
2022-08-10T19:15:34.053Z,5.07
2022-08-10T19:18:21.284Z,4.75
2022-08-10T19:20:55.330Z,7.85
2022-08-10T19:23:45.488Z,6.47
2022-08-10T19:26:43.707Z,8.10
2022-08-10T19:30:11.713Z,7.72
2022-08-10T19:32:31.275Z,5.25
2022-08-10T19:35:08.714Z,6.78
2022-08-10T19:38:00.489Z,8.93
2022-08-10T19:40:44.216Z,5.20
2022-08-10T19:43:59.048Z,6.68
2022-08-10T19:46:28.084Z,6.07
2022-08-10T19:49:04.679Z,4.78
2022-08-10T19:51:56.767Z,4.03
2022-08-10T19:54:34.838Z,7.22
2022-08-10T19:57:14.706Z,5.30
2022-08-10T20:00:17.613Z,5.65
2022-08-10T20:02:51.741Z,3.97
2022-08-10T20:05:31.138Z,5.55
2022-08-10T20:08:08.869Z,6.38
2022-08-10T20:10:48.403Z,5.25
2022-08-10T20:13:26.983Z,7.57
2022-08-10T20:16:00.448Z,6.78
2022-08-10T20:18:36.041Z,4.68
2022-08-10T20:21:14.810Z,6.53
2022-08-10T20:23:55.521Z,4.57
2022-08-10T20:26:28.773Z,4.72
2022-08-10T20:29:10.479Z,4.60
2022-08-10T20:32:03.231Z,5.60
2022-08-10T20:34:39.810Z,8.00
2022-08-10T20:37:40.963Z,4.15
2022-08-10T20:40:19.303Z,6.05
2022-08-10T20:43:01.019Z,6.03
2022-08-10T20:45:52.117Z,6.85
2022-08-10T20:48:32.297Z,6.32
2022-08-10T20:51:06.501Z,4.70
2022-08-10T20:53:45.334Z,4.43
2022-08-10T20:56:27.839Z,5.95
2022-08-10T20:59:15.128Z,10.13
2022-08-10T21:02:11.963Z,4.05
2022-08-10T21:05:08.970Z,4.45
2022-08-10T21:08:07.921Z,7.82
2022-08-10T21:10:58.706Z,6.72
2022-08-10T21:13:52.270Z,4.07
2022-08-10T21:16:35.766Z,5.43
2022-08-10T21:19:37.025Z,5.35
2022-08-10T21:22:15.753Z,6.97
2022-08-10T21:24:52.239Z,5.05
2022-08-10T21:27:56.727Z,3.25
2022-08-10T21:30:37.884Z,4.30
2022-08-10T21:33:26.465Z,4.47
2022-08-10T21:36:09.918Z,6.35
2022-08-10T21:38:51.703Z,3.45
2022-08-10T21:41:58.439Z,4.18
2022-08-10T21:45:12.516Z,4.00
2022-08-10T21:48:18.501Z,4.43
2022-08-10T21:51:16.305Z,6.13
2022-08-10T21:54:19.645Z,6.50
2022-08-10T22:00:18.827Z,5.20
2022-08-10T22:03:10.684Z,6.18
2022-08-10T22:05:59.668Z,4.53
2022-08-10T22:08:55.240Z,6.45
2022-08-10T22:11:50.589Z,6.22
2022-08-10T22:14:48.479Z,7.13
2022-08-10T22:18:01.103Z,5.82
2022-08-10T22:20:52.436Z,6.50
2022-08-10T22:24:16.438Z,5.53
2022-08-10T22:27:47.026Z,4.40
2022-08-10T22:30:36.978Z,6.35
2022-08-10T22:33:45.250Z,7.47
2022-08-10T22:37:01.619Z,6.25
2022-08-10T22:40:12.153Z,8.13
2022-08-10T22:43:10.976Z,4.82
2022-08-10T22:46:12.020Z,8.23
2022-08-10T22:49:02.680Z,8.45
2022-08-10T22:51:44.688Z,6.07
2022-08-10T22:54:38.029Z,8.02
2022-08-10T22:57:31.226Z,9.95
2022-08-10T23:00:09.985Z,7.53
2022-08-10T23:02:49.506Z,4.60
2022-08-10T23:05:33.342Z,5.50
2022-08-10T23:08:09.914Z,5.90
2022-08-10T23:10:42.914Z,7.05
2022-08-10T23:13:35.567Z,5.00
2022-08-10T23:16:25.575Z,7.13
2022-08-10T23:19:12.377Z,6.95
2022-08-10T23:22:03.470Z,4.75
2022-08-10T23:24:40.785Z,6.97
2022-08-10T23:27:37.639Z,4.78
2022-08-10T23:30:10.479Z,5.32
2022-08-10T23:32:47.612Z,3.83
2022-08-10T23:36:31.576Z,3.28
2022-08-10T23:38:11.731Z,4.75
2022-08-10T23:40:46.418Z,3.50
2022-08-10T23:43:40.710Z,4.57
2022-08-10T23:46:16.340Z,4.72
2022-08-10T23:48:48.282Z,4.20
2022-08-10T23:51:28.285Z,3.40
2022-08-10T23:54:22.013Z,3.30
2022-08-10T23:57:00.619Z,3.38
2022-08-10T23:59:35.049Z,3.92
